sensor_id;sensor_type;location;lat;lon;timestamp;temperature;humidity
15630;DHT22;7914;50.842;0.166;2023-05-10T00:02:06;11.50;100.00
15630;DHT22;7914;50.842;0.166;2023-05-10T00:04:32;11.50;100.00
15630;DHT22;7914;50.842;0.166;2023-05-10T00:06:58;11.60;100.00
15630;DHT22;7914;50.842;0.166;2023-05-10T00:09:23;11.60;100.00
15630;DHT22;7914;50.842;0.166;2023-05-10T00:11:49;11.60;100.00
15630;DHT22;7914;50.842;0.166;2023-05-10T00:14:15;11.60;100.00
15630;DHT22;7914;50.842;0.166;2023-05-10T00:16:41;11.60;100.00
15630;DHT22;7914;50.842;0.166;2023-05-10T00:19:06;11.60;100.00
15630;DHT22;7914;50.842;0.166;2023-05-10T00:21:32;11.60;100.00
15630;DHT22;7914;50.842;0.166;2023-05-10T00:23:59;11.70;100.00
15630;DHT22;7914;50.842;0.166;2023-05-10T00:26:25;11.70;100.00
15630;DHT22;7914;50.842;0.166;2023-05-10T00:28:51;11.70;100.00
15630;DHT22;7914;50.842;0.166;2023-05-10T00:31:16;11.80;100.00
15630;DHT22;7914;50.842;0.166;2023-05-10T00:33:42;11.90;100.00
15630;DHT22;7914;50.842;0.166;2023-05-10T00:36:08;11.90;100.00
15630;DHT22;7914;50.842;0.166;2023-05-10T00:38:34;11.90;100.00
15630;DHT22;7914;50.842;0.166;2023-05-10T00:40:59;11.90;100.00
15630;DHT22;7914;50.842;0.166;2023-05-10T00:43:25;11.90;100.00
15630;DHT22;7914;50.842;0.166;2023-05-10T00:45:51;11.80;100.00
15630;DHT22;7914;50.842;0.166;2023-05-10T00:48:18;11.90;100.00
15630;DHT22;7914;50.842;0.166;2023-05-10T00:50:44;11.90;100.00
15630;DHT22;7914;50.842;0.166;2023-05-10T00:53:10;11.90;100.00
15630;DHT22;7914;50.842;0.166;2023-05-10T00:55:36;11.80;100.00
15630;DHT22;7914;50.842;0.166;2023-05-10T00:58:02;11.90;100.00
15630;DHT22;7914;50.842;0.166;2023-05-10T01:00:28;11.80;100.00
15630;DHT22;7914;50.842;0.166;2023-05-10T01:02:55;11.70;100.00
15630;DHT22;7914;50.842;0.166;2023-05-10T01:05:21;11.80;100.00
15630;DHT22;7914;50.842;0.166;2023-05-10T01:07:47;11.80;100.00
15630;DHT22;7914;50.842;0.166;2023-05-10T01:10:13;11.80;100.00
15630;DHT22;7914;50.842;0.166;2023-05-10T01:12:41;11.70;100.00
15630;DHT22;7914;50.842;0.166;2023-05-10T01:15:09;11.70;100.00
15630;DHT22;7914;50.842;0.166;2023-05-10T01:17:38;11.80;100.00
15630;DHT22;7914;50.842;0.166;2023-05-10T01:20:05;11.80;100.00
15630;DHT22;7914;50.842;0.166;2023-05-10T01:28:39;11.80;100.00
15630;DHT22;7914;50.842;0.166;2023-05-10T01:34:11;11.70;100.00
15630;DHT22;7914;50.842;0.166;2023-05-10T01:39:31;11.70;100.00
15630;DHT22;7914;50.842;0.166;2023-05-10T01:42:03;11.80;100.00
15630;DHT22;7914;50.842;0.166;2023-05-10T01:44:50;11.70;100.00
15630;DHT22;7914;50.842;0.166;2023-05-10T01:47:38;11.70;100.00
15630;DHT22;7914;50.842;0.166;2023-05-10T01:50:10;11.70;100.00
15630;DHT22;7914;50.842;0.166;2023-05-10T01:52:42;11.70;100.00
15630;DHT22;7914;50.842;0.166;2023-05-10T01:55:13;11.70;100.00
15630;DHT22;7914;50.842;0.166;2023-05-10T01:57:40;11.70;100.00
15630;DHT22;7914;50.842;0.166;2023-05-10T02:00:09;11.70;100.00
15630;DHT22;7914;50.842;0.166;2023-05-10T02:02:40;11.70;100.00
15630;DHT22;7914;50.842;0.166;2023-05-10T02:05:08;11.70;100.00
15630;DHT22;7914;50.842;0.166;2023-05-10T02:07:36;11.70;100.00
15630;DHT22;7914;50.842;0.166;2023-05-10T02:10:05;11.70;100.00
15630;DHT22;7914;50.842;0.166;2023-05-10T02:12:35;11.70;100.00
15630;DHT22;7914;50.842;0.166;2023-05-10T02:15:04;11.80;100.00
15630;DHT22;7914;50.842;0.166;2023-05-10T02:17:32;11.70;100.00
15630;DHT22;7914;50.842;0.166;2023-05-10T02:19:59;11.70;100.00
15630;DHT22;7914;50.842;0.166;2023-05-10T02:22:27;11.70;100.00
15630;DHT22;7914;50.842;0.166;2023-05-10T02:24:55;11.80;100.00
15630;DHT22;7914;50.842;0.166;2023-05-10T02:27:23;11.70;100.00
15630;DHT22;7914;50.842;0.166;2023-05-10T02:29:51;11.80;100.00
15630;DHT22;7914;50.842;0.166;2023-05-10T02:32:17;11.70;100.00
15630;DHT22;7914;50.842;0.166;2023-05-10T02:34:45;11.70;100.00
15630;DHT22;7914;50.842;0.166;2023-05-10T02:37:15;11.70;100.00
15630;DHT22;7914;50.842;0.166;2023-05-10T02:39:44;11.70;100.00
15630;DHT22;7914;50.842;0.166;2023-05-10T02:42:17;11.60;100.00
15630;DHT22;7914;50.842;0.166;2023-05-10T02:44:48;11.60;100.00
15630;DHT22;7914;50.842;0.166;2023-05-10T02:47:14;11.60;100.00
15630;DHT22;7914;50.842;0.166;2023-05-10T02:49:40;11.60;100.00
15630;DHT22;7914;50.842;0.166;2023-05-10T02:52:06;11.60;100.00
15630;DHT22;7914;50.842;0.166;2023-05-10T02:54:39;11.60;100.00
15630;DHT22;7914;50.842;0.166;2023-05-10T02:57:07;11.60;100.00
15630;DHT22;7914;50.842;0.166;2023-05-10T02:59:34;11.60;100.00
15630;DHT22;7914;50.842;0.166;2023-05-10T03:02:00;11.60;100.00
15630;DHT22;7914;50.842;0.166;2023-05-10T03:04:27;11.50;100.00
15630;DHT22;7914;50.842;0.166;2023-05-10T03:06:53;11.60;100.00
15630;DHT22;7914;50.842;0.166;2023-05-10T03:09:19;11.60;100.00
15630;DHT22;7914;50.842;0.166;2023-05-10T03:15:00;11.50;100.00
15630;DHT22;7914;50.842;0.166;2023-05-10T03:17:52;11.60;100.00
15630;DHT22;7914;50.842;0.166;2023-05-10T03:20:26;11.60;100.00
15630;DHT22;7914;50.842;0.166;2023-05-10T03:23:05;11.60;100.00
15630;DHT22;7914;50.842;0.166;2023-05-10T03:25:33;11.50;100.00
15630;DHT22;7914;50.842;0.166;2023-05-10T03:28:01;11.50;100.00
15630;DHT22;7914;50.842;0.166;2023-05-10T03:30:30;11.50;100.00
15630;DHT22;7914;50.842;0.166;2023-05-10T03:32:57;11.60;100.00
15630;DHT22;7914;50.842;0.166;2023-05-10T03:35:23;11.50;100.00
15630;DHT22;7914;50.842;0.166;2023-05-10T03:37:49;11.50;100.00
15630;DHT22;7914;50.842;0.166;2023-05-10T03:40:15;11.50;100.00
15630;DHT22;7914;50.842;0.166;2023-05-10T03:42:41;11.50;100.00
15630;DHT22;7914;50.842;0.166;2023-05-10T03:45:07;11.50;100.00
15630;DHT22;7914;50.842;0.166;2023-05-10T03:47:33;11.50;100.00
15630;DHT22;7914;50.842;0.166;2023-05-10T03:49:59;11.50;100.00
15630;DHT22;7914;50.842;0.166;2023-05-10T03:52:24;11.50;100.00
15630;DHT22;7914;50.842;0.166;2023-05-10T03:54:50;11.50;100.00
15630;DHT22;7914;50.842;0.166;2023-05-10T03:57:16;11.50;100.00
15630;DHT22;7914;50.842;0.166;2023-05-10T03:59:42;11.50;100.00
15630;DHT22;7914;50.842;0.166;2023-05-10T04:02:07;11.40;100.00
15630;DHT22;7914;50.842;0.166;2023-05-10T04:04:33;11.50;100.00
15630;DHT22;7914;50.842;0.166;2023-05-10T04:06:58;11.50;100.00
15630;DHT22;7914;50.842;0.166;2023-05-10T04:09:24;11.50;100.00
15630;DHT22;7914;50.842;0.166;2023-05-10T04:11:50;11.50;100.00
15630;DHT22;7914;50.842;0.166;2023-05-10T04:14:16;11.50;100.00
15630;DHT22;7914;50.842;0.166;2023-05-10T04:16:42;11.50;100.00
15630;DHT22;7914;50.842;0.166;2023-05-10T04:19:07;11.40;100.00
15630;DHT22;7914;50.842;0.166;2023-05-10T04:21:33;11.50;100.00
15630;DHT22;7914;50.842;0.166;2023-05-10T04:23:59;11.50;100.00
15630;DHT22;7914;50.842;0.166;2023-05-10T04:26:24;11.40;100.00
15630;DHT22;7914;50.842;0.166;2023-05-10T04:28:51;11.40;100.00
15630;DHT22;7914;50.842;0.166;2023-05-10T04:31:16;11.40;100.00
15630;DHT22;7914;50.842;0.166;2023-05-10T04:33:42;11.40;100.00
15630;DHT22;7914;50.842;0.166;2023-05-10T04:36:08;11.40;100.00
15630;DHT22;7914;50.842;0.166;2023-05-10T04:38:34;11.40;100.00
15630;DHT22;7914;50.842;0.166;2023-05-10T04:41:10;11.40;100.00
15630;DHT22;7914;50.842;0.166;2023-05-10T04:43:36;11.40;100.00
15630;DHT22;7914;50.842;0.166;2023-05-10T04:46:03;11.50;100.00
15630;DHT22;7914;50.842;0.166;2023-05-10T04:48:28;11.50;100.00
15630;DHT22;7914;50.842;0.166;2023-05-10T04:50:54;11.50;100.00
15630;DHT22;7914;50.842;0.166;2023-05-10T04:53:20;11.50;100.00
15630;DHT22;7914;50.842;0.166;2023-05-10T04:55:46;11.50;100.00
15630;DHT22;7914;50.842;0.166;2023-05-10T04:58:12;11.50;100.00
15630;DHT22;7914;50.842;0.166;2023-05-10T05:00:38;11.60;100.00
15630;DHT22;7914;50.842;0.166;2023-05-10T05:03:03;11.60;100.00
15630;DHT22;7914;50.842;0.166;2023-05-10T05:05:29;11.60;100.00
15630;DHT22;7914;50.842;0.166;2023-05-10T05:07:55;11.60;100.00
15630;DHT22;7914;50.842;0.166;2023-05-10T05:10:20;11.60;100.00
15630;DHT22;7914;50.842;0.166;2023-05-10T05:12:46;11.60;100.00
15630;DHT22;7914;50.842;0.166;2023-05-10T05:15:12;11.60;100.00
15630;DHT22;7914;50.842;0.166;2023-05-10T05:17:37;11.60;100.00
15630;DHT22;7914;50.842;0.166;2023-05-10T05:20:03;11.70;100.00
15630;DHT22;7914;50.842;0.166;2023-05-10T05:22:29;11.70;100.00
15630;DHT22;7914;50.842;0.166;2023-05-10T05:24:55;11.70;100.00
15630;DHT22;7914;50.842;0.166;2023-05-10T05:27:22;11.70;100.00
15630;DHT22;7914;50.842;0.166;2023-05-10T05:29:52;11.60;100.00
15630;DHT22;7914;50.842;0.166;2023-05-10T05:32:18;11.50;100.00
15630;DHT22;7914;50.842;0.166;2023-05-10T05:34:45;11.50;100.00
15630;DHT22;7914;50.842;0.166;2023-05-10T05:37:18;11.50;100.00
15630;DHT22;7914;50.842;0.166;2023-05-10T05:39:44;11.60;100.00
15630;DHT22;7914;50.842;0.166;2023-05-10T05:42:11;11.70;100.00
15630;DHT22;7914;50.842;0.166;2023-05-10T05:44:38;11.70;100.00
15630;DHT22;7914;50.842;0.166;2023-05-10T05:47:04;11.80;100.00
15630;DHT22;7914;50.842;0.166;2023-05-10T05:49:30;11.90;100.00
15630;DHT22;7914;50.842;0.166;2023-05-10T05:52:00;12.10;100.00
15630;DHT22;7914;50.842;0.166;2023-05-10T05:54:29;12.20;100.00
15630;DHT22;7914;50.842;0.166;2023-05-10T05:56:58;12.30;100.00
15630;DHT22;7914;50.842;0.166;2023-05-10T05:59:25;12.30;100.00
15630;DHT22;7914;50.842;0.166;2023-05-10T06:01:51;12.40;100.00
15630;DHT22;7914;50.842;0.166;2023-05-10T06:04:16;12.40;100.00
15630;DHT22;7914;50.842;0.166;2023-05-10T06:06:42;12.50;100.00
15630;DHT22;7914;50.842;0.166;2023-05-10T06:09:09;12.40;100.00
15630;DHT22;7914;50.842;0.166;2023-05-10T06:11:35;12.40;100.00
15630;DHT22;7914;50.842;0.166;2023-05-10T06:14:01;12.40;100.00
15630;DHT22;7914;50.842;0.166;2023-05-10T06:16:29;12.70;100.00
15630;DHT22;7914;50.842;0.166;2023-05-10T06:18:54;12.70;98.70
15630;DHT22;7914;50.842;0.166;2023-05-10T06:21:21;12.80;97.70
15630;DHT22;7914;50.842;0.166;2023-05-10T06:23:46;12.90;98.40
15630;DHT22;7914;50.842;0.166;2023-05-10T06:26:12;13.20;97.30
15630;DHT22;7914;50.842;0.166;2023-05-10T06:28:39;13.40;95.10
15630;DHT22;7914;50.842;0.166;2023-05-10T06:31:05;13.60;95.70
15630;DHT22;7914;50.842;0.166;2023-05-10T06:33:31;13.70;94.00
15630;DHT22;7914;50.842;0.166;2023-05-10T06:35:57;13.80;93.30
15630;DHT22;7914;50.842;0.166;2023-05-10T06:38:23;13.80;94.30
15630;DHT22;7914;50.842;0.166;2023-05-10T06:40:49;13.90;93.40
15630;DHT22;7914;50.842;0.166;2023-05-10T06:43:14;14.20;92.00
15630;DHT22;7914;50.842;0.166;2023-05-10T06:45:40;14.70;91.90
15630;DHT22;7914;50.842;0.166;2023-05-10T06:48:07;14.60;90.40
15630;DHT22;7914;50.842;0.166;2023-05-10T06:50:32;14.30;89.60
15630;DHT22;7914;50.842;0.166;2023-05-10T06:52:59;14.10;91.30
15630;DHT22;7914;50.842;0.166;2023-05-10T06:55:25;14.00;90.50
15630;DHT22;7914;50.842;0.166;2023-05-10T06:57:51;13.80;91.20
15630;DHT22;7914;50.842;0.166;2023-05-10T07:00:18;13.50;92.40
15630;DHT22;7914;50.842;0.166;2023-05-10T07:02:44;13.70;92.60
15630;DHT22;7914;50.842;0.166;2023-05-10T07:05:09;14.00;91.70
15630;DHT22;7914;50.842;0.166;2023-05-10T07:07:35;14.70;90.60
15630;DHT22;7914;50.842;0.166;2023-05-10T07:10:01;16.30;82.80
15630;DHT22;7914;50.842;0.166;2023-05-10T07:12:28;16.10;82.70
15630;DHT22;7914;50.842;0.166;2023-05-10T07:14:53;15.80;84.30
15630;DHT22;7914;50.842;0.166;2023-05-10T07:17:19;16.80;80.90
15630;DHT22;7914;50.842;0.166;2023-05-10T07:19:45;18.20;76.10
15630;DHT22;7914;50.842;0.166;2023-05-10T07:22:11;18.50;72.20
15630;DHT22;7914;50.842;0.166;2023-05-10T07:24:36;17.90;74.40
15630;DHT22;7914;50.842;0.166;2023-05-10T07:27:02;17.10;77.30
15630;DHT22;7914;50.842;0.166;2023-05-10T07:29:28;17.10;78.80
15630;DHT22;7914;50.842;0.166;2023-05-10T07:31:54;19.70;69.50
15630;DHT22;7914;50.842;0.166;2023-05-10T07:34:20;22.70;58.90
15630;DHT22;7914;50.842;0.166;2023-05-10T07:36:45;22.80;57.20
15630;DHT22;7914;50.842;0.166;2023-05-10T07:39:11;21.90;59.10
15630;DHT22;7914;50.842;0.166;2023-05-10T07:41:37;21.00;61.50
15630;DHT22;7914;50.842;0.166;2023-05-10T07:44:04;19.70;68.00
15630;DHT22;7914;50.842;0.166;2023-05-10T07:46:30;19.00;69.60
15630;DHT22;7914;50.842;0.166;2023-05-10T07:48:56;18.70;68.70
15630;DHT22;7914;50.842;0.166;2023-05-10T07:51:21;18.00;72.70
15630;DHT22;7914;50.842;0.166;2023-05-10T07:53:47;17.60;74.00
15630;DHT22;7914;50.842;0.166;2023-05-10T07:56:25;17.70;73.80
15630;DHT22;7914;50.842;0.166;2023-05-10T07:58:52;17.90;74.00
15630;DHT22;7914;50.842;0.166;2023-05-10T08:01:18;19.00;71.50
15630;DHT22;7914;50.842;0.166;2023-05-10T08:03:44;19.70;69.70
15630;DHT22;7914;50.842;0.166;2023-05-10T08:06:10;19.20;70.70
15630;DHT22;7914;50.842;0.166;2023-05-10T08:08:35;18.90;70.70
15630;DHT22;7914;50.842;0.166;2023-05-10T08:11:01;18.80;71.70
15630;DHT22;7914;50.842;0.166;2023-05-10T08:13:27;18.40;71.00
15630;DHT22;7914;50.842;0.166;2023-05-10T08:15:52;18.40;72.20
15630;DHT22;7914;50.842;0.166;2023-05-10T08:18:19;18.30;74.60
15630;DHT22;7914;50.842;0.166;2023-05-10T08:20:44;18.20;74.70
15630;DHT22;7914;50.842;0.166;2023-05-10T08:23:12;18.20;73.90
15630;DHT22;7914;50.842;0.166;2023-05-10T08:25:38;18.10;74.90
15630;DHT22;7914;50.842;0.166;2023-05-10T08:28:04;18.20;77.70
15630;DHT22;7914;50.842;0.166;2023-05-10T08:30:30;18.40;75.90
15630;DHT22;7914;50.842;0.166;2023-05-10T08:32:55;18.40;74.70
15630;DHT22;7914;50.842;0.166;2023-05-10T08:35:21;18.70;74.20
15630;DHT22;7914;50.842;0.166;2023-05-10T08:37:47;18.90;74.10
15630;DHT22;7914;50.842;0.166;2023-05-10T08:40:13;18.90;73.10
15630;DHT22;7914;50.842;0.166;2023-05-10T08:42:43;18.80;73.60
15630;DHT22;7914;50.842;0.166;2023-05-10T08:45:13;18.80;74.50
15630;DHT22;7914;50.842;0.166;2023-05-10T08:47:40;18.90;75.90
15630;DHT22;7914;50.842;0.166;2023-05-10T08:50:06;18.50;77.00
15630;DHT22;7914;50.842;0.166;2023-05-10T08:52:33;18.50;79.50
15630;DHT22;7914;50.842;0.166;2023-05-10T08:55:04;18.60;79.40
15630;DHT22;7914;50.842;0.166;2023-05-10T08:57:29;19.00;78.20
15630;DHT22;7914;50.842;0.166;2023-05-10T08:59:55;19.00;77.80
15630;DHT22;7914;50.842;0.166;2023-05-10T09:02:22;19.10;75.70
15630;DHT22;7914;50.842;0.166;2023-05-10T09:04:48;19.20;74.90
15630;DHT22;7914;50.842;0.166;2023-05-10T09:07:14;19.50;75.70
15630;DHT22;7914;50.842;0.166;2023-05-10T09:09:40;19.60;74.00
15630;DHT22;7914;50.842;0.166;2023-05-10T09:12:06;19.40;74.50
15630;DHT22;7914;50.842;0.166;2023-05-10T09:14:34;19.20;73.50
15630;DHT22;7914;50.842;0.166;2023-05-10T09:17:00;19.40;74.30
15630;DHT22;7914;50.842;0.166;2023-05-10T09:19:27;19.30;76.10
15630;DHT22;7914;50.842;0.166;2023-05-10T09:21:53;19.40;76.80
15630;DHT22;7914;50.842;0.166;2023-05-10T09:24:19;19.50;72.90
15630;DHT22;7914;50.842;0.166;2023-05-10T09:26:48;19.60;71.50
15630;DHT22;7914;50.842;0.166;2023-05-10T09:29:14;19.40;71.80
15630;DHT22;7914;50.842;0.166;2023-05-10T09:31:48;18.90;75.30
15630;DHT22;7914;50.842;0.166;2023-05-10T09:34:18;19.20;78.70
15630;DHT22;7914;50.842;0.166;2023-05-10T09:36:56;19.60;75.10
15630;DHT22;7914;50.842;0.166;2023-05-10T09:39:30;19.40;75.00
15630;DHT22;7914;50.842;0.166;2023-05-10T09:41:58;19.80;76.60
15630;DHT22;7914;50.842;0.166;2023-05-10T09:44:25;20.10;75.00
15630;DHT22;7914;50.842;0.166;2023-05-10T09:46:51;20.10;72.00
15630;DHT22;7914;50.842;0.166;2023-05-10T09:49:19;20.10;74.60
15630;DHT22;7914;50.842;0.166;2023-05-10T09:51:46;20.40;73.90
15630;DHT22;7914;50.842;0.166;2023-05-10T09:54:16;20.80;73.10
15630;DHT22;7914;50.842;0.166;2023-05-10T09:56:42;20.20;69.90
15630;DHT22;7914;50.842;0.166;2023-05-10T09:59:10;19.90;72.60
15630;DHT22;7914;50.842;0.166;2023-05-10T10:01:37;20.00;71.10
15630;DHT22;7914;50.842;0.166;2023-05-10T10:04:06;20.00;73.20
15630;DHT22;7914;50.842;0.166;2023-05-10T10:06:39;20.10;73.00
15630;DHT22;7914;50.842;0.166;2023-05-10T10:09:05;20.40;73.40
15630;DHT22;7914;50.842;0.166;2023-05-10T10:11:32;20.70;69.70
15630;DHT22;7914;50.842;0.166;2023-05-10T10:13:58;20.20;71.50
15630;DHT22;7914;50.842;0.166;2023-05-10T10:16:24;20.20;69.60
15630;DHT22;7914;50.842;0.166;2023-05-10T10:18:50;20.00;71.30
15630;DHT22;7914;50.842;0.166;2023-05-10T10:21:16;19.70;71.60
15630;DHT22;7914;50.842;0.166;2023-05-10T10:23:42;19.30;73.90
15630;DHT22;7914;50.842;0.166;2023-05-10T10:26:10;18.90;74.70
15630;DHT22;7914;50.842;0.166;2023-05-10T10:28:42;18.90;75.60
15630;DHT22;7914;50.842;0.166;2023-05-10T10:34:09;20.10;75.50
15630;DHT22;7914;50.842;0.166;2023-05-10T10:36:47;20.60;69.50
15630;DHT22;7914;50.842;0.166;2023-05-10T10:39:14;21.00;68.30
15630;DHT22;7914;50.842;0.166;2023-05-10T10:41:49;21.00;66.40
15630;DHT22;7914;50.842;0.166;2023-05-10T10:44:37;20.20;66.60
15630;DHT22;7914;50.842;0.166;2023-05-10T10:52:36;18.70;74.90
15630;DHT22;7914;50.842;0.166;2023-05-10T10:55:13;19.00;75.40
15630;DHT22;7914;50.842;0.166;2023-05-10T11:00:30;19.30;73.80
15630;DHT22;7914;50.842;0.166;2023-05-10T11:03:10;19.30;72.80
15630;DHT22;7914;50.842;0.166;2023-05-10T11:05:45;19.10;74.70
15630;DHT22;7914;50.842;0.166;2023-05-10T11:08:30;19.20;73.00
15630;DHT22;7914;50.842;0.166;2023-05-10T11:13:41;19.20;73.50
15630;DHT22;7914;50.842;0.166;2023-05-10T11:16:16;19.10;73.90
15630;DHT22;7914;50.842;0.166;2023-05-10T11:22:12;18.10;81.80
15630;DHT22;7914;50.842;0.166;2023-05-10T11:24:38;17.50;86.00
15630;DHT22;7914;50.842;0.166;2023-05-10T11:27:05;17.20;85.60
15630;DHT22;7914;50.842;0.166;2023-05-10T11:29:31;16.90;87.10
15630;DHT22;7914;50.842;0.166;2023-05-10T11:31:58;17.00;87.30
15630;DHT22;7914;50.842;0.166;2023-05-10T11:34:29;17.00;89.00
15630;DHT22;7914;50.842;0.166;2023-05-10T11:37:01;17.20;91.70
15630;DHT22;7914;50.842;0.166;2023-05-10T11:39:31;17.70;88.40
15630;DHT22;7914;50.842;0.166;2023-05-10T11:41:57;17.90;85.90
15630;DHT22;7914;50.842;0.166;2023-05-10T11:44:28;18.10;88.50
15630;DHT22;7914;50.842;0.166;2023-05-10T11:46:57;18.40;84.50
15630;DHT22;7914;50.842;0.166;2023-05-10T11:49:25;18.50;83.60
15630;DHT22;7914;50.842;0.166;2023-05-10T11:51:51;18.60;84.50
15630;DHT22;7914;50.842;0.166;2023-05-10T11:54:17;18.70;84.30
15630;DHT22;7914;50.842;0.166;2023-05-10T11:56:42;19.30;82.90
15630;DHT22;7914;50.842;0.166;2023-05-10T11:59:08;19.30;79.80
15630;DHT22;7914;50.842;0.166;2023-05-10T12:01:34;19.20;78.90
15630;DHT22;7914;50.842;0.166;2023-05-10T12:04:01;18.60;78.10
15630;DHT22;7914;50.842;0.166;2023-05-10T12:06:29;18.40;79.90
15630;DHT22;7914;50.842;0.166;2023-05-10T12:08:57;18.60;83.10
15630;DHT22;7914;50.842;0.166;2023-05-10T12:11:27;19.10;82.20
15630;DHT22;7914;50.842;0.166;2023-05-10T12:13:54;19.20;78.10
15630;DHT22;7914;50.842;0.166;2023-05-10T12:16:28;18.70;77.50
15630;DHT22;7914;50.842;0.166;2023-05-10T12:18:57;18.20;77.80
15630;DHT22;7914;50.842;0.166;2023-05-10T12:21:23;18.00;81.00
15630;DHT22;7914;50.842;0.166;2023-05-10T12:23:53;18.20;81.00
15630;DHT22;7914;50.842;0.166;2023-05-10T12:26:24;18.30;81.10
15630;DHT22;7914;50.842;0.166;2023-05-10T12:28:50;18.40;78.30
15630;DHT22;7914;50.842;0.166;2023-05-10T12:31:15;18.40;78.80
15630;DHT22;7914;50.842;0.166;2023-05-10T12:33:42;18.20;79.90
15630;DHT22;7914;50.842;0.166;2023-05-10T12:36:09;18.10;78.50
15630;DHT22;7914;50.842;0.166;2023-05-10T12:38:37;17.90;81.50
15630;DHT22;7914;50.842;0.166;2023-05-10T12:41:08;18.10;80.90
15630;DHT22;7914;50.842;0.166;2023-05-10T12:43:35;18.40;79.20
15630;DHT22;7914;50.842;0.166;2023-05-10T12:46:08;18.10;79.70
15630;DHT22;7914;50.842;0.166;2023-05-10T12:48:34;18.10;79.10
15630;DHT22;7914;50.842;0.166;2023-05-10T12:51:01;18.00;79.00
15630;DHT22;7914;50.842;0.166;2023-05-10T12:53:27;17.70;79.20
15630;DHT22;7914;50.842;0.166;2023-05-10T12:55:53;17.70;78.90
15630;DHT22;7914;50.842;0.166;2023-05-10T12:58:19;17.40;81.20
15630;DHT22;7914;50.842;0.166;2023-05-10T13:00:45;17.80;81.30
15630;DHT22;7914;50.842;0.166;2023-05-10T13:03:11;18.00;81.50
15630;DHT22;7914;50.842;0.166;2023-05-10T13:05:37;18.30;80.60
15630;DHT22;7914;50.842;0.166;2023-05-10T13:08:03;18.30;80.10
15630;DHT22;7914;50.842;0.166;2023-05-10T13:10:32;18.50;79.20
15630;DHT22;7914;50.842;0.166;2023-05-10T13:12:58;18.20;78.70
15630;DHT22;7914;50.842;0.166;2023-05-10T13:15:24;18.00;79.30
15630;DHT22;7914;50.842;0.166;2023-05-10T13:17:50;18.10;80.30
15630;DHT22;7914;50.842;0.166;2023-05-10T13:20:16;18.50;79.00
15630;DHT22;7914;50.842;0.166;2023-05-10T13:22:45;18.50;79.20
15630;DHT22;7914;50.842;0.166;2023-05-10T13:25:11;18.80;77.50
15630;DHT22;7914;50.842;0.166;2023-05-10T13:27:40;19.10;76.30
15630;DHT22;7914;50.842;0.166;2023-05-10T13:30:09;19.40;76.20
15630;DHT22;7914;50.842;0.166;2023-05-10T13:32:36;19.60;73.90
15630;DHT22;7914;50.842;0.166;2023-05-10T13:35:03;19.90;75.40
15630;DHT22;7914;50.842;0.166;2023-05-10T13:37:29;19.90;75.30
15630;DHT22;7914;50.842;0.166;2023-05-10T13:39:55;19.90;72.60
15630;DHT22;7914;50.842;0.166;2023-05-10T13:42:22;19.50;74.10
15630;DHT22;7914;50.842;0.166;2023-05-10T13:44:49;19.30;75.20
15630;DHT22;7914;50.842;0.166;2023-05-10T13:47:14;19.30;76.20
15630;DHT22;7914;50.842;0.166;2023-05-10T13:49:40;19.60;74.60
15630;DHT22;7914;50.842;0.166;2023-05-10T13:52:07;19.60;74.10
15630;DHT22;7914;50.842;0.166;2023-05-10T13:54:33;19.70;74.70
15630;DHT22;7914;50.842;0.166;2023-05-10T13:56:59;19.40;73.80
15630;DHT22;7914;50.842;0.166;2023-05-10T13:59:26;19.30;75.10
15630;DHT22;7914;50.842;0.166;2023-05-10T14:01:51;19.30;75.80
15630;DHT22;7914;50.842;0.166;2023-05-10T14:04:17;19.20;74.20
15630;DHT22;7914;50.842;0.166;2023-05-10T14:06:42;18.60;76.20
15630;DHT22;7914;50.842;0.166;2023-05-10T14:09:08;18.20;77.20
15630;DHT22;7914;50.842;0.166;2023-05-10T14:11:34;18.00;78.50
15630;DHT22;7914;50.842;0.166;2023-05-10T14:13:59;17.90;79.50
15630;DHT22;7914;50.842;0.166;2023-05-10T14:16:25;18.10;80.10
15630;DHT22;7914;50.842;0.166;2023-05-10T14:18:51;18.10;79.50
15630;DHT22;7914;50.842;0.166;2023-05-10T14:21:17;17.80;79.70
15630;DHT22;7914;50.842;0.166;2023-05-10T14:23:42;17.90;79.10
15630;DHT22;7914;50.842;0.166;2023-05-10T14:26:08;17.90;80.10
15630;DHT22;7914;50.842;0.166;2023-05-10T14:28:34;18.00;78.60
15630;DHT22;7914;50.842;0.166;2023-05-10T14:31:00;17.90;79.10
15630;DHT22;7914;50.842;0.166;2023-05-10T14:33:25;17.80;80.00
15630;DHT22;7914;50.842;0.166;2023-05-10T14:35:51;17.70;80.10
15630;DHT22;7914;50.842;0.166;2023-05-10T14:38:17;18.00;78.80
15630;DHT22;7914;50.842;0.166;2023-05-10T14:40:43;17.90;79.30
15630;DHT22;7914;50.842;0.166;2023-05-10T14:43:09;18.20;78.40
15630;DHT22;7914;50.842;0.166;2023-05-10T14:45:34;18.30;76.90
15630;DHT22;7914;50.842;0.166;2023-05-10T14:48:00;18.20;76.40
15630;DHT22;7914;50.842;0.166;2023-05-10T14:50:30;18.10;77.90
15630;DHT22;7914;50.842;0.166;2023-05-10T14:52:56;18.20;78.40
15630;DHT22;7914;50.842;0.166;2023-05-10T14:55:22;18.60;77.30
15630;DHT22;7914;50.842;0.166;2023-05-10T14:57:47;18.90;76.50
15630;DHT22;7914;50.842;0.166;2023-05-10T15:00:15;19.20;75.00
15630;DHT22;7914;50.842;0.166;2023-05-10T15:02:41;19.20;74.40
15630;DHT22;7914;50.842;0.166;2023-05-10T15:05:07;19.20;74.40
15630;DHT22;7914;50.842;0.166;2023-05-10T15:07:33;19.30;75.40
15630;DHT22;7914;50.842;0.166;2023-05-10T15:09:58;19.20;73.50
15630;DHT22;7914;50.842;0.166;2023-05-10T15:12:24;18.70;74.60
15630;DHT22;7914;50.842;0.166;2023-05-10T15:14:50;18.50;76.30
15630;DHT22;7914;50.842;0.166;2023-05-10T15:17:15;18.50;76.30
15630;DHT22;7914;50.842;0.166;2023-05-10T15:19:42;18.50;76.70
15630;DHT22;7914;50.842;0.166;2023-05-10T15:22:08;18.80;77.10
15630;DHT22;7914;50.842;0.166;2023-05-10T15:24:34;19.10;75.70
15630;DHT22;7914;50.842;0.166;2023-05-10T15:26:59;19.10;75.30
15630;DHT22;7914;50.842;0.166;2023-05-10T15:29:26;19.30;74.50
15630;DHT22;7914;50.842;0.166;2023-05-10T15:31:51;19.10;73.90
15630;DHT22;7914;50.842;0.166;2023-05-10T15:34:18;18.70;72.90
15630;DHT22;7914;50.842;0.166;2023-05-10T15:36:44;18.60;75.60
15630;DHT22;7914;50.842;0.166;2023-05-10T15:39:11;18.90;75.10
15630;DHT22;7914;50.842;0.166;2023-05-10T15:41:37;18.70;74.30
15630;DHT22;7914;50.842;0.166;2023-05-10T15:44:03;18.30;74.70
15630;DHT22;7914;50.842;0.166;2023-05-10T15:46:29;18.10;75.40
15630;DHT22;7914;50.842;0.166;2023-05-10T15:48:59;17.70;75.60
15630;DHT22;7914;50.842;0.166;2023-05-10T15:51:25;17.60;77.20
15630;DHT22;7914;50.842;0.166;2023-05-10T15:53:51;17.50;77.20
15630;DHT22;7914;50.842;0.166;2023-05-10T15:56:16;17.50;78.00
15630;DHT22;7914;50.842;0.166;2023-05-10T15:58:42;17.40;77.70
15630;DHT22;7914;50.842;0.166;2023-05-10T16:01:09;17.30;78.60
15630;DHT22;7914;50.842;0.166;2023-05-10T16:03:36;17.10;78.60
15630;DHT22;7914;50.842;0.166;2023-05-10T16:06:02;17.00;79.80
15630;DHT22;7914;50.842;0.166;2023-05-10T16:08:28;16.80;80.50
15630;DHT22;7914;50.842;0.166;2023-05-10T16:11:01;16.70;81.00
15630;DHT22;7914;50.842;0.166;2023-05-10T16:13:28;16.40;81.20